Time;durP1;ratioP1;P1;durP2;ratioP2;P2;SDS_P1;SDS_P2;PMS_P1;PMS_P2;Temp;Humidity;BMP_temperature;BMP_pressure;BME280_temperature;BME280_humidity;BME280_pressure;Samples;Min_cycle;Max_cycle;Signal;HPM_P1;HPM_P2
2022/11/01 00:01:32;;;;;;;6.22;3.20;;;19.30;23.90;;;;;;4860573;29;20051;-54
2022/11/01 00:03:59;;;;;;;5.82;4.15;;;19.40;23.10;;;;;;4860741;29;20504;-51
2022/11/01 00:06:26;;;;;;;6.22;3.08;;;19.30;23.80;;;;;;4860687;29;20078;-52
2022/11/01 00:08:53;;;;;;;7.28;4.03;;;19.30;23.60;;;;;;4860329;29;20046;-54
2022/11/01 00:11:20;;;;;;;5.85;3.28;;;19.30;23.70;;;;;;4860421;29;20124;-52
2022/11/01 00:13:48;;;;;;;7.22;3.47;;;19.30;22.70;;;;;;4861041;29;20132;-54
2022/11/01 00:16:17;;;;;;;6.75;2.90;;;19.30;22.70;;;;;;4860547;29;20086;-52
2022/11/01 00:18:43;;;;;;;4.95;3.15;;;19.30;21.80;;;;;;4860211;29;20492;-55
2022/11/01 00:21:11;;;;;;;4.57;3.03;;;19.30;23.90;;;;;;4860583;29;20419;-50
2022/11/01 00:23:38;;;;;;;9.35;3.92;;;19.30;22.00;;;;;;4860397;29;20050;-50
2022/11/01 00:26:06;;;;;;;8.27;3.35;;;19.30;23.30;;;;;;4860509;29;20045;-52
2022/11/01 00:28:33;;;;;;;10.20;3.42;;;19.30;23.60;;;;;;4860243;29;20461;-51
2022/11/01 00:31:01;;;;;;;4.43;2.95;;;19.30;23.00;;;;;;4860302;29;20095;-51
2022/11/01 00:33:27;;;;;;;5.63;3.05;;;19.30;21.60;;;;;;4860222;29;20484;-52
2022/11/01 00:35:59;;;;;;;6.38;3.38;;;19.30;22.10;;;;;;4860336;29;20049;-54
2022/11/01 00:38:26;;;;;;;5.93;3.80;;;19.30;23.00;;;;;;4860223;29;20046;-49
2022/11/01 00:40:54;;;;;;;5.00;3.50;;;19.30;23.10;;;;;;4860170;29;20049;-50
2022/11/01 00:43:21;;;;;;;4.22;2.78;;;19.30;23.20;;;;;;4860978;29;20113;-51
2022/11/01 00:45:48;;;;;;;9.48;3.60;;;19.20;23.00;;;;;;4863717;29;20053;-53
2022/11/01 00:48:15;;;;;;;6.03;3.20;;;19.30;22.20;;;;;;4863489;29;20050;-52
2022/11/01 00:50:42;;;;;;;6.63;2.90;;;19.30;24.60;;;;;;4863342;29;20416;-52
2022/11/01 00:53:11;;;;;;;8.52;3.33;;;19.20;24.30;;;;;;4863916;29;20097;-53
2022/11/01 00:55:38;;;;;;;8.30;3.75;;;19.30;24.40;;;;;;4873174;29;20109;-50
2022/11/01 00:58:05;;;;;;;4.88;2.75;;;19.30;22.00;;;;;;4882242;29;20064;-50
2022/11/01 01:00:32;;;;;;;5.88;2.60;;;19.30;22.30;;;;;;4881491;29;20105;-50
2022/11/01 01:02:58;;;;;;;8.18;3.38;;;19.30;21.10;;;;;;4882258;29;20045;-53
2022/11/01 01:05:26;;;;;;;6.40;3.47;;;19.30;22.50;;;;;;4881862;29;20049;-52
2022/11/01 01:07:53;;;;;;;5.45;3.63;;;19.20;22.60;;;;;;4882097;29;20113;-50
2022/11/01 01:10:20;;;;;;;5.90;3.17;;;19.20;22.70;;;;;;4881362;29;20225;-51
2022/11/01 01:12:47;;;;;;;5.05;3.30;;;19.20;22.80;;;;;;4881648;29;20049;-53
2022/11/01 01:15:14;;;;;;;6.35;4.03;;;19.20;22.60;;;;;;4881678;29;20105;-53
2022/11/01 01:17:41;;;;;;;5.00;2.90;;;19.20;22.40;;;;;;4881367;29;20108;-53
2022/11/01 01:20:08;;;;;;;7.68;3.10;;;19.20;22.30;;;;;;4881114;29;20061;-53
2022/11/01 01:22:35;;;;;;;5.97;3.58;;;19.20;21.60;;;;;;4881466;29;20041;-53
2022/11/01 01:25:02;;;;;;;4.43;2.58;;;19.20;24.30;;;;;;4881531;29;20071;-50
2022/11/01 01:27:29;;;;;;;6.88;3.25;;;19.20;22.80;;;;;;4881179;29;20045;-51
2022/11/01 01:29:56;;;;;;;4.57;3.33;;;19.20;24.30;;;;;;4880954;29;20047;-52
2022/11/01 01:32:23;;;;;;;5.72;3.35;;;19.20;24.00;;;;;;4881138;29;20041;-48
2022/11/01 01:34:50;;;;;;;7.10;2.88;;;19.20;24.20;;;;;;4881203;29;20093;-49
2022/11/01 01:37:19;;;;;;;6.88;2.80;;;19.20;24.30;;;;;;4881279;29;20045;-50
2022/11/01 01:39:45;;;;;;;7.03;3.20;;;19.20;24.10;;;;;;4880996;29;20092;-50
2022/11/01 01:42:32;;;;;;;6.93;4.40;;;19.20;24.70;;;;;;4881275;29;20056;-50
2022/11/01 01:44:59;;;;;;;5.47;3.00;;;19.20;23.60;;;;;;4881302;29;20491;-51
2022/11/01 01:47:32;;;;;;;6.57;3.38;;;19.20;23.90;;;;;;4881300;29;20041;-48
2022/11/01 01:50:16;;;;;;;3.65;2.28;;;19.20;24.80;;;;;;4880754;29;20093;-51
2022/11/01 01:52:58;;;;;;;5.07;2.65;;;19.20;24.80;;;;;;4881022;29;20045;-49
2022/11/01 01:55:33;;;;;;;7.43;3.50;;;19.20;25.40;;;;;;4871928;29;20496;-48
2022/11/01 01:58:01;;;;;;;4.35;2.92;;;19.20;26.90;;;;;;4862312;29;20380;-47
2022/11/01 02:00:28;;;;;;;6.55;2.75;;;19.10;23.80;;;;;;4860573;29;20050;-52
2022/11/01 02:02:54;;;;;;;5.88;3.53;;;19.20;26.40;;;;;;4862189;29;20049;-50
2022/11/01 02:05:42;;;;;;;7.15;3.00;;;19.10;25.30;;;;;;4862242;29;20052;-48
2022/11/01 02:08:11;;;;;;;4.72;2.50;;;19.20;24.10;;;;;;4862199;29;20053;-51
2022/11/01 02:10:38;;;;;;;7.63;3.22;;;19.10;25.00;;;;;;4861815;29;20042;-47
2022/11/01 02:13:14;;;;;;;5.53;3.42;;;19.10;24.10;;;;;;4862033;29;20433;-49
2022/11/01 02:16:01;;;;;;;5.85;3.40;;;19.10;25.10;;;;;;4862107;29;20050;-52
2022/11/01 02:18:59;;;;;;;6.15;3.00;;;19.10;24.40;;;;;;4861972;29;20052;-49
2022/11/01 02:21:41;;;;;;;5.82;2.65;;;19.10;24.90;;;;;;4861759;29;20044;-50
2022/11/01 02:24:36;;;;;;;5.78;2.78;;;19.10;24.70;;;;;;4862126;29;20045;-49
2022/11/01 02:27:06;;;;;;;5.53;3.08;;;19.10;25.70;;;;;;4861616;29;20093;-50
2022/11/01 02:29:51;;;;;;;4.97;2.75;;;19.10;25.60;;;;;;4861372;29;20045;-50
2022/11/01 02:32:30;;;;;;;4.82;2.50;;;19.10;25.70;;;;;;4861644;29;20065;-51
2022/11/01 02:35:10;;;;;;;6.72;3.10;;;19.10;24.60;;;;;;4861839;29;20052;-49
2022/11/01 02:37:47;;;;;;;4.00;2.92;;;19.10;25.10;;;;;;4861433;29;20114;-51
2022/11/01 02:40:29;;;;;;;4.70;2.83;;;19.10;25.90;;;;;;4861313;29;20048;-51
2022/11/01 02:43:02;;;;;;;5.82;2.95;;;19.00;25.60;;;;;;4861514;29;20106;-48
2022/11/01 02:45:49;;;;;;;4.03;3.13;;;19.10;24.60;;;;;;4861837;29;20502;-48
2022/11/01 02:48:22;;;;;;;4.63;3.25;;;19.10;26.20;;;;;;4861539;29;20125;-51
2022/11/01 02:50:54;;;;;;;5.57;3.38;;;19.10;26.20;;;;;;4861618;29;20052;-51
2022/11/01 02:53:21;;;;;;;4.57;3.20;;;19.10;26.00;;;;;;4861338;29;20101;-49
2022/11/01 02:55:51;;;;;;;6.57;3.13;;;19.10;27.50;;;;;;4872705;29;20119;-50
2022/11/01 02:58:23;;;;;;;6.45;2.78;;;19.00;26.80;;;;;;4879714;29;20045;-53
2022/11/01 03:00:51;;;;;;;4.43;3.17;;;19.10;26.10;;;;;;4879852;29;20563;-53
2022/11/01 03:03:26;;;;;;;6.82;3.15;;;19.10;26.20;;;;;;4879674;29;20049;-51
2022/11/01 03:06:03;;;;;;;5.72;2.90;;;19.00;24.80;;;;;;4879704;29;20073;-49
2022/11/01 03:08:47;;;;;;;6.18;3.13;;;19.00;25.40;;;;;;4879358;29;20052;-52
2022/11/01 03:11:20;;;;;;;8.40;3.20;;;19.00;25.90;;;;;;4879760;29;20053;-52
2022/11/01 03:14:17;;;;;;;4.38;2.55;;;19.10;27.30;;;;;;4880168;29;20148;-53
2022/11/01 03:16:44;;;;;;;6.97;3.00;;;19.00;24.80;;;;;;4879832;29;20057;-51
2022/11/01 03:19:37;;;;;;;4.22;3.05;;;19.10;26.10;;;;;;4879437;29;20406;-49
2022/11/01 03:22:38;;;;;;;4.47;2.40;;;19.00;25.70;;;;;;4874407;29;20057;-51
2022/11/01 03:25:38;;;;;;;5.25;3.35;;;19.00;24.30;;;;;;4879495;29;20045;-50
2022/11/01 03:28:01;;;;;;;5.22;3.03;;;19.00;25.60;;;;;;4879422;29;20061;-51
2022/11/01 03:30:31;;;;;;;5.53;3.03;;;19.00;26.70;;;;;;4879009;29;20491;-52
2022/11/01 03:32:58;;;;;;;5.95;2.80;;;19.10;23.50;;;;;;4879513;29;20076;-52
2022/11/01 03:35:36;;;;;;;4.40;2.50;;;19.10;25.70;;;;;;4879569;29;20049;-52
2022/11/01 03:38:07;;;;;;;8.80;3.28;;;19.00;27.00;;;;;;4879487;29;20101;-49
2022/11/01 03:40:36;;;;;;;4.95;2.60;;;19.00;25.20;;;;;;4879117;29;20407;-49
2022/11/01 03:43:10;;;;;;;7.45;3.78;;;19.00;26.00;;;;;;4879448;29;20510;-51
2022/11/01 03:45:39;;;;;;;5.47;2.80;;;19.00;23.60;;;;;;4879537;29;20101;-51
2022/11/01 03:48:06;;;;;;;8.05;3.17;;;19.00;25.10;;;;;;4879364;29;20073;-51
2022/11/01 03:50:33;;;;;;;5.97;3.33;;;19.00;25.90;;;;;;4878878;29;20384;-49
2022/11/01 03:53:00;;;;;;;5.90;2.95;;;19.00;27.00;;;;;;4879336;29;20423;-50
2022/11/01 03:55:27;;;;;;;8.35;3.22;;;19.00;26.70;;;;;;4870563;29;20052;-48
2022/11/01 03:57:56;;;;;;;3.60;2.75;;;19.00;25.90;;;;;;4861052;29;20046;-48
2022/11/01 04:00:29;;;;;;;5.43;2.42;;;19.00;26.50;;;;;;4860471;29;20045;-50
2022/11/01 04:02:57;;;;;;;6.72;2.67;;;19.00;25.80;;;;;;4860779;29;20049;-50
2022/11/01 04:05:26;;;;;;;7.97;2.65;;;19.00;25.40;;;;;;4860611;29;20052;-51
2022/11/01 04:07:54;;;;;;;8.52;3.28;;;19.00;24.60;;;;;;4860499;29;20125;-52
2022/11/01 04:10:23;;;;;;;6.38;2.72;;;19.00;26.30;;;;;;4860312;29;20109;-52
2022/11/01 04:12:51;;;;;;;8.38;3.08;;;19.00;25.10;;;;;;4860664;29;20049;-50
2022/11/01 04:21:07;;;;;;;10.27;2.75;;;19.00;24.20;;;;;;4864133;29;20050;-50
2022/11/01 04:23:34;;;;;;;7.00;3.00;;;19.00;26.40;;;;;;4863829;29;20045;-51
2022/11/01 04:26:01;;;;;;;7.97;2.70;;;19.00;24.90;;;;;;4862795;29;20415;-52
2022/11/01 04:28:28;;;;;;;5.05;2.60;;;19.00;24.20;;;;;;4863685;29;20046;-52
2022/11/01 04:30:55;;;;;;;8.15;3.25;;;19.00;25.90;;;;;;4863558;29;20049;-53
2022/11/01 04:33:22;;;;;;;5.93;3.42;;;19.00;24.50;;;;;;4863937;29;20149;-53
2022/11/01 04:35:49;;;;;;;6.15;2.60;;;19.00;23.00;;;;;;4863771;29;20097;-49
2022/11/01 04:38:16;;;;;;;7.60;2.45;;;19.00;23.30;;;;;;4863703;29;20173;-51
2022/11/01 04:40:43;;;;;;;8.18;3.28;;;19.00;25.00;;;;;;4863489;29;20544;-52
2022/11/01 04:43:11;;;;;;;6.03;2.15;;;19.00;24.30;;;;;;4863762;29;20485;-53
2022/11/01 04:45:39;;;;;;;6.22;2.45;;;19.00;24.50;;;;;;4863552;29;20045;-50
2022/11/01 04:48:12;;;;;;;8.80;2.60;;;18.90;24.20;;;;;;4863541;29;20512;-53
2022/11/01 04:50:40;;;;;;;15.70;2.88;;;18.90;23.40;;;;;;4863446;29;20101;-54
2022/11/01 04:53:08;;;;;;;11.13;3.05;;;18.90;23.80;;;;;;4863529;29;20054;-52
2022/11/01 04:55:36;;;;;;;12.63;3.45;;;18.90;23.80;;;;;;4873199;29;20115;-49
2022/11/01 04:58:03;;;;;;;13.38;4.03;;;18.90;22.60;;;;;;4896432;29;20073;-52
2022/11/01 05:00:33;;;;;;;10.57;2.25;;;18.90;23.30;;;;;;4880290;29;20480;-50
2022/11/01 05:03:05;;;;;;;7.25;3.08;;;18.90;25.70;;;;;;4896570;29;20072;-52
2022/11/01 05:05:33;;;;;;;5.68;3.08;;;18.90;24.20;;;;;;4882366;29;20081;-53
2022/11/01 05:08:07;;;;;;;6.18;2.47;;;18.90;21.90;;;;;;4881990;29;20053;-52
2022/11/01 05:10:35;;;;;;;9.93;3.42;;;18.90;24.30;;;;;;4881596;29;20052;-54
2022/11/01 05:13:04;;;;;;;9.60;2.72;;;18.90;25.80;;;;;;4881791;29;20551;-50
2022/11/01 05:15:32;;;;;;;6.63;2.03;;;18.90;23.80;;;;;;4881636;29;20071;-51
2022/11/01 05:17:58;;;;;;;6.28;2.08;;;18.90;21.80;;;;;;4881855;29;20044;-54
2022/11/01 05:20:25;;;;;;;13.48;3.00;;;18.90;23.10;;;;;;4881118;29;20037;-51
2022/11/01 05:22:57;;;;;;;10.38;2.08;;;18.90;22.90;;;;;;4881365;29;20049;-50
2022/11/01 05:25:24;;;;;;;11.43;2.70;;;18.90;23.90;;;;;;4881456;29;20045;-51
2022/11/01 05:27:56;;;;;;;5.43;1.55;;;18.90;23.80;;;;;;4881440;29;20552;-51
2022/11/01 05:30:23;;;;;;;7.80;1.92;;;18.90;22.10;;;;;;4880512;29;20059;-54
2022/11/01 05:32:56;;;;;;;6.75;1.95;;;18.80;24.40;;;;;;4881354;29;20069;-48
2022/11/01 05:35:23;;;;;;;8.88;2.67;;;18.90;23.00;;;;;;4881237;29;20064;-50
2022/11/01 05:37:50;;;;;;;9.85;2.53;;;18.90;23.00;;;;;;4881348;29;20440;-52
2022/11/01 05:40:17;;;;;;;6.00;2.40;;;18.90;22.50;;;;;;4880798;29;20049;-52
2022/11/01 05:42:44;;;;;;;10.98;2.83;;;18.90;22.10;;;;;;4881147;29;20041;-52
2022/11/01 05:45:11;;;;;;;11.15;2.42;;;18.80;21.40;;;;;;4881153;29;20053;-50
2022/11/01 05:47:41;;;;;;;17.73;2.88;;;18.90;21.80;;;;;;4881096;29;20455;-51
2022/11/01 05:50:10;;;;;;;10.32;2.40;;;18.80;23.70;;;;;;4880695;29;20513;-49
2022/11/01 05:52:37;;;;;;;11.60;2.20;;;18.80;22.30;;;;;;4881193;29;20045;-53
2022/11/01 05:55:06;;;;;;;11.55;3.60;;;18.80;23.20;;;;;;4875374;29;20077;-53
2022/11/01 05:57:33;;;;;;;9.30;3.08;;;18.80;22.90;;;;;;4861175;29;20046;-50
2022/11/01 06:00:00;;;;;;;10.60;3.00;;;18.80;22.60;;;;;;4861901;29;20129;-51
2022/11/01 06:02:30;;;;;;;7.70;2.50;;;18.80;22.80;;;;;;4856612;29;20041;-52
2022/11/01 06:04:57;;;;;;;13.18;2.70;;;18.80;23.10;;;;;;4853816;29;20457;-50
2022/11/01 06:07:28;;;;;;;8.85;3.38;;;18.80;22.00;;;;;;4853185;29;20042;-53
2022/11/01 06:09:55;;;;;;;6.88;1.92;;;18.80;22.50;;;;;;4851070;29;20102;-50
2022/11/01 06:12:24;;;;;;;7.97;2.63;;;18.80;23.20;;;;;;4849310;29;20053;-51
2022/11/01 06:14:51;;;;;;;18.30;2.85;;;18.80;21.90;;;;;;4862076;29;20057;-53
2022/11/01 06:17:18;;;;;;;16.73;3.35;;;18.80;22.50;;;;;;4860900;29;20492;-51
2022/11/01 06:19:45;;;;;;;10.65;2.60;;;18.80;22.10;;;;;;4861463;29;20102;-51
2022/11/01 06:22:12;;;;;;;11.80;2.90;;;18.80;22.70;;;;;;4861837;29;20435;-51
2022/11/01 06:24:38;;;;;;;8.15;2.78;;;18.80;23.60;;;;;;4861793;29;20042;-52
2022/11/01 06:27:05;;;;;;;14.55;2.78;;;18.80;24.30;;;;;;4862410;29;20061;-49
2022/11/01 06:29:38;;;;;;;10.38;3.53;;;18.80;22.00;;;;;;4860213;29;20519;-51
2022/11/01 06:32:05;;;;;;;15.60;2.85;;;18.80;23.10;;;;;;4861768;29;20049;-51
2022/11/01 06:34:32;;;;;;;14.38;2.75;;;18.80;22.60;;;;;;4861981;29;20050;-52
2022/11/01 06:36:59;;;;;;;19.05;3.20;;;18.80;23.50;;;;;;4861803;29;20053;-51
2022/11/01 06:39:26;;;;;;;13.20;2.70;;;18.80;23.90;;;;;;4861035;29;20049;-51
2022/11/01 06:41:53;;;;;;;14.15;2.90;;;18.80;22.30;;;;;;4860632;29;20045;-49
2022/11/01 06:44:21;;;;;;;16.50;4.28;;;18.80;21.60;;;;;;4861832;29;20046;-49
2022/11/01 06:46:48;;;;;;;12.70;2.53;;;18.80;21.40;;;;;;4861405;29;20065;-53
2022/11/01 06:49:15;;;;;;;16.52;4.00;;;18.80;19.20;;;;;;4861017;29;20053;-48
2022/11/01 06:51:45;;;;;;;9.50;2.22;;;18.80;20.00;;;;;;4861989;29;20044;-54
2022/11/01 06:54:12;;;;;;;14.63;3.38;;;18.80;19.10;;;;;;4879739;29;20056;-50
2022/11/01 06:56:39;;;;;;;14.35;3.47;;;18.80;18.40;;;;;;4879760;29;20055;-50
2022/11/01 06:59:07;;;;;;;12.45;2.92;;;18.80;19.50;;;;;;4862337;29;20049;-51
2022/11/01 07:01:34;;;;;;;13.70;2.80;;;18.80;17.90;;;;;;4860834;29;20448;-53
2022/11/01 07:04:01;;;;;;;14.43;3.85;;;18.80;18.40;;;;;;4861367;29;20052;-53
2022/11/01 07:06:29;;;;;;;10.68;3.50;;;18.80;22.10;;;;;;4861092;29;20042;-49
2022/11/01 07:08:58;;;;;;;11.23;3.53;;;18.80;20.70;;;;;;4857891;29;20052;-52
2022/11/01 07:11:25;;;;;;;11.25;3.08;;;18.80;22.30;;;;;;4864343;29;20486;-51
2022/11/01 07:13:58;;;;;;;12.40;3.27;;;18.80;22.10;;;;;;4857551;29;20042;-52
2022/11/01 07:16:25;;;;;;;12.60;2.60;;;18.80;23.70;;;;;;4860785;29;20511;-50
2022/11/01 07:18:52;;;;;;;13.85;2.70;;;18.70;20.80;;;;;;4878275;29;20120;-57
2022/11/01 07:21:19;;;;;;;13.27;2.90;;;18.80;23.70;;;;;;4879731;29;20073;-52
2022/11/01 07:23:47;;;;;;;11.88;3.20;;;18.80;23.10;;;;;;4879832;29;20049;-50
2022/11/01 07:26:13;;;;;;;14.95;3.30;;;18.70;21.70;;;;;;4870913;29;20045;-50
2022/11/01 07:28:40;;;;;;;14.80;3.08;;;18.80;24.50;;;;;;4860708;29;20101;-49
2022/11/01 07:31:07;;;;;;;15.02;2.78;;;18.80;24.40;;;;;;4860807;29;20069;-49
2022/11/01 07:33:34;;;;;;;17.58;3.58;;;18.80;21.70;;;;;;4861127;29;20532;-49
2022/11/01 07:36:02;;;;;;;27.27;3.47;;;18.70;22.40;;;;;;4860655;29;20057;-51
2022/11/01 07:38:29;;;;;;;13.73;4.13;;;18.70;21.80;;;;;;4860164;29;20049;-50
2022/11/01 07:40:56;;;;;;;13.13;3.42;;;18.70;21.50;;;;;;4860435;29;20049;-53
2022/11/01 07:43:24;;;;;;;16.80;3.22;;;18.70;19.70;;;;;;4867703;29;20056;-50
2022/11/01 07:45:50;;;;;;;15.27;2.55;;;18.70;19.40;;;;;;4879430;29;20108;-48
2022/11/01 07:48:18;;;;;;;14.85;2.78;;;18.70;20.20;;;;;;4860733;29;20496;-51
2022/11/01 07:50:45;;;;;;;15.25;3.00;;;18.70;21.20;;;;;;4860315;29;20065;-49
2022/11/01 07:53:15;;;;;;;12.13;2.83;;;18.70;20.30;;;;;;4862384;29;20060;-49
2022/11/01 07:55:42;;;;;;;15.98;3.15;;;18.70;20.80;;;;;;4874093;29;20052;-49
2022/11/01 07:58:11;;;;;;;10.80;3.67;;;18.70;19.80;;;;;;4857318;29;20341;-48
2022/11/01 08:00:39;;;;;;;13.23;3.53;;;18.70;19.60;;;;;;4877849;29;20399;-52
2022/11/01 08:03:08;;;;;;;18.48;3.28;;;18.70;17.40;;;;;;4864468;29;20046;-50
2022/11/01 08:05:35;;;;;;;19.83;4.13;;;18.70;18.10;;;;;;4863726;29;20048;-50
2022/11/01 08:08:03;;;;;;;12.55;3.40;;;18.70;17.20;;;;;;4864175;29;20050;-52
2022/11/01 08:10:31;;;;;;;13.38;2.88;;;18.70;16.70;;;;;;4863887;29;20106;-54
2022/11/01 08:13:05;;;;;;;22.50;5.05;;;18.70;16.70;;;;;;4875126;29;20049;-49
2022/11/01 08:15:33;;;;;;;13.82;3.13;;;18.70;15.50;;;;;;4882575;29;20493;-51
2022/11/01 08:18:00;;;;;;;18.27;3.80;;;18.70;17.20;;;;;;4882662;29;20086;-55
2022/11/01 08:20:27;;;;;;;20.08;5.38;;;18.70;15.90;;;;;;4882365;29;20045;-50
2022/11/01 08:22:54;;;;;;;12.20;3.00;;;18.70;17.30;;;;;;4882436;29;20041;-51
2022/11/01 08:25:22;;;;;;;19.20;3.58;;;18.70;16.30;;;;;;4882793;29;20060;-49
2022/11/01 08:27:49;;;;;;;20.05;3.53;;;18.70;15.30;;;;;;4882528;29;20045;-47
2022/11/01 08:30:17;;;;;;;24.65;5.20;;;18.70;15.20;;;;;;4873970;29;20548;-48
2022/11/01 08:32:44;;;;;;;10.45;3.45;;;18.70;17.10;;;;;;4869671;29;20052;-47
2022/11/01 08:35:12;;;;;;;23.17;4.15;;;18.70;15.60;;;;;;4864011;29;20496;-52
2022/11/01 08:37:51;;;;;;;13.75;2.92;;;18.70;15.00;;;;;;4863388;29;20069;-50
2022/11/01 08:40:19;;;;;;;16.02;3.50;;;18.70;15.20;;;;;;4863737;29;20057;-52
2022/11/01 08:42:47;;;;;;;13.63;2.70;;;18.70;14.10;;;;;;4863303;29;20042;-49
2022/11/01 08:45:14;;;;;;;15.85;3.88;;;18.70;13.40;;;;;;4863604;29;20045;-49
2022/11/01 08:47:41;;;;;;;13.48;3.97;;;18.70;14.00;;;;;;4879401;29;20041;-51
2022/11/01 08:50:10;;;;;;;14.30;4.43;;;18.70;12.40;;;;;;4881951;29;20056;-51
2022/11/01 08:52:38;;;;;;;11.20;3.47;;;18.70;12.10;;;;;;4881986;29;20041;-52
2022/11/01 08:55:05;;;;;;;12.55;3.90;;;18.70;11.80;;;;;;4881864;29;20045;-49
2022/11/01 08:57:32;;;;;;;13.18;3.20;;;18.70;13.80;;;;;;4881929;29;20068;-53
2022/11/01 08:59:59;;;;;;;19.48;5.28;;;18.70;14.30;;;;;;4880327;29;20471;-50
2022/11/01 09:02:26;;;;;;;13.98;2.60;;;18.70;14.00;;;;;;4881730;29;20049;-51
2022/11/01 09:04:53;;;;;;;12.23;2.92;;;18.70;12.10;;;;;;4880686;29;20484;-52
2022/11/01 09:07:20;;;;;;;16.13;3.40;;;18.70;14.60;;;;;;4881799;29;20097;-52
2022/11/01 09:09:47;;;;;;;17.65;4.63;;;18.60;11.90;;;;;;4881400;29;20044;-53
2022/11/01 09:12:13;;;;;;;15.80;4.05;;;18.70;13.60;;;;;;4881595;29;20045;-52
2022/11/01 09:14:41;;;;;;;12.80;4.28;;;18.70;12.50;;;;;;4881543;29;20614;-53
2022/11/01 09:17:07;;;;;;;14.77;2.83;;;18.70;11.80;;;;;;4881619;29;20045;-50
2022/11/01 09:19:34;;;;;;;18.52;3.38;;;18.70;12.80;;;;;;4881030;29;20100;-48
2022/11/01 09:22:01;;;;;;;7.93;2.45;;;18.70;12.00;;;;;;4881472;29;20045;-50
2022/11/01 09:24:28;;;;;;;18.90;3.03;;;18.60;14.20;;;;;;4881282;29;20044;-50
2022/11/01 09:26:55;;;;;;;11.27;2.45;;;18.70;13.20;;;;;;4881239;29;20041;-48
2022/11/01 09:29:22;;;;;;;12.43;3.60;;;18.70;14.40;;;;;;4880869;29;20045;-50
2022/11/01 09:31:51;;;;;;;18.35;4.28;;;18.70;14.30;;;;;;4881207;29;20403;-48
2022/11/01 09:34:19;;;;;;;17.10;2.63;;;18.70;12.20;;;;;;4881547;29;20488;-50
2022/11/01 09:36:47;;;;;;;17.30;4.53;;;18.70;13.00;;;;;;4881202;29;20052;-49
2022/11/01 09:39:16;;;;;;;15.30;3.67;;;18.60;15.60;;;;;;4881027;29;20045;-47
2022/11/01 09:41:48;;;;;;;14.48;3.13;;;18.70;13.90;;;;;;4881082;29;20045;-51
2022/11/01 09:44:31;;;;;;;22.95;4.18;;;18.60;15.60;;;;;;4881221;29;20105;-51
2022/11/01 09:47:03;;;;;;;12.50;3.55;;;18.70;14.90;;;;;;4871073;29;20102;-48
2022/11/01 09:49:35;;;;;;;19.30;3.78;;;18.70;14.50;;;;;;4862419;29;20504;-50
2022/11/01 09:52:03;;;;;;;25.43;4.27;;;18.70;14.00;;;;;;4862517;29;20059;-48
2022/11/01 09:54:31;;;;;;;18.20;4.35;;;18.70;16.10;;;;;;4862541;29;20041;-48
2022/11/01 09:57:16;;;;;;;18.05;3.35;;;18.70;13.40;;;;;;4862400;29;20050;-49
2022/11/01 10:00:04;;;;;;;12.55;4.05;;;18.70;14.60;;;;;;4862131;29;20046;-49
2022/11/01 10:02:44;;;;;;;15.40;3.78;;;18.70;15.40;;;;;;4862548;29;20046;-52
2022/11/01 10:05:20;;;;;;;15.02;4.57;;;18.70;15.20;;;;;;4862327;29;20046;-52
2022/11/01 10:07:57;;;;;;;15.73;4.28;;;18.70;14.70;;;;;;4862293;29;20068;-48
2022/11/01 10:10:44;;;;;;;14.63;3.10;;;18.70;16.10;;;;;;4861675;29;20076;-48
2022/11/01 10:13:20;;;;;;;11.82;2.90;;;18.70;16.10;;;;;;4861896;29;20056;-48
2022/11/01 10:16:06;;;;;;;14.07;3.20;;;18.70;16.60;;;;;;4861867;29;20101;-49
2022/11/01 10:18:41;;;;;;;17.95;3.15;;;18.70;15.50;;;;;;4861935;29;20050;-49
2022/11/01 10:21:12;;;;;;;11.52;3.00;;;18.70;16.30;;;;;;4861751;29;20082;-49
2022/11/01 10:23:52;;;;;;;18.40;4.50;;;18.70;15.10;;;;;;4861976;29;20041;-50
2022/11/01 10:26:25;;;;;;;18.10;3.97;;;18.70;15.50;;;;;;4862007;29;20449;-51
2022/11/01 10:29:11;;;;;;;13.57;3.35;;;18.70;15.10;;;;;;4861461;29;20073;-48
2022/11/01 10:31:46;;;;;;;21.88;4.63;;;18.70;15.60;;;;;;4861569;29;20492;-48
2022/11/01 10:34:21;;;;;;;19.27;3.55;;;18.70;14.70;;;;;;4862010;29;20065;-52
2022/11/01 10:36:50;;;;;;;20.55;3.88;;;18.70;15.30;;;;;;4858035;29;20046;-50
2022/11/01 10:39:35;;;;;;;17.63;4.55;;;18.70;15.50;;;;;;4854822;29;20045;-49
2022/11/01 10:42:21;;;;;;;24.98;4.43;;;18.70;15.10;;;;;;4852146;29;20041;-52
2022/11/01 10:44:56;;;;;;;24.88;4.43;;;18.70;14.60;;;;;;4850620;29;20044;-51
2022/11/01 10:47:24;;;;;;;25.27;5.07;;;18.70;9.60;;;;;;4857414;29;20052;-50
2022/11/01 10:49:54;;;;;;;20.13;5.05;;;18.70;10.70;;;;;;4852619;29;20089;-50
2022/11/01 10:52:51;;;;;;;24.83;4.32;;;18.70;8.10;;;;;;4856117;29;20038;-48
2022/11/01 10:55:29;;;;;;;22.80;5.28;;;18.70;8.40;;;;;;4859624;29;20048;-49
2022/11/01 10:58:06;;;;;;;16.55;4.80;;;18.70;7.90;;;;;;4853862;29;20045;-49
2022/11/01 11:00:38;;;;;;;21.02;3.72;;;18.70;5.60;;;;;;4860805;29;20411;-49
2022/11/01 11:03:21;;;;;;;24.33;3.63;;;18.70;7.40;;;;;;4861381;29;20050;-51
2022/11/01 11:05:51;;;;;;;23.27;5.38;;;18.70;5.40;;;;;;4861344;29;20073;-53
2022/11/01 11:08:20;;;;;;;24.25;4.70;;;18.70;5.00;;;;;;4860984;29;20041;-53
2022/11/01 11:10:48;;;;;;;23.05;4.03;;;18.70;6.30;;;;;;4861128;29;20148;-52
2022/11/01 11:13:19;;;;;;;19.05;5.07;;;18.70;6.20;;;;;;4861347;29;20421;-51
2022/11/01 11:16:03;;;;;;;30.25;5.35;;;18.70;5.80;;;;;;4861508;29;20049;-51
2022/11/01 11:18:36;;;;;;;;;;;18.70;3.40;;;;;;4867991;29;20045;-53
2022/11/01 11:21:10;;;;;;;22.73;4.00;;;18.70;4.70;;;;;;4872422;29;19934;-51
2022/11/01 11:23:45;;;;;;;21.80;4.15;;;18.70;3.00;;;;;;4869932;29;20082;-51
2022/11/01 11:26:18;;;;;;;21.05;5.22;;;18.70;1.20;;;;;;4842358;29;20113;-52
2022/11/01 11:28:47;;;;;;;;;;;18.70;3.20;;;;;;4842792;29;20048;-53
2022/11/01 11:31:27;;;;;;;29.23;5.10;;;18.70;4.10;;;;;;4847439;29;19928;-49
2022/11/01 11:34:18;;;;;;;17.77;3.92;;;18.70;5.30;;;;;;4865988;29;20059;-48
2022/11/01 11:36:52;;;;;;;16.25;3.78;;;18.70;5.60;;;;;;4876414;29;20049;-47
2022/11/01 11:39:37;;;;;;;22.65;4.45;;;18.70;7.90;;;;;;4876194;29;20083;-50
2022/11/01 11:42:24;;;;;;;18.42;4.43;;;18.70;8.20;;;;;;4860613;29;20056;-52
2022/11/01 11:45:11;;;;;;;14.07;3.30;;;18.70;9.10;;;;;;4861060;29;20488;-53
2022/11/01 11:47:38;;;;;;;19.63;5.13;;;18.70;10.80;;;;;;4861482;29;20052;-51
2022/11/01 11:50:20;;;;;;;15.38;3.83;;;18.70;10.00;;;;;;4872347;29;20457;-49
2022/11/01 11:52:49;;;;;;;19.08;3.55;;;18.70;11.40;;;;;;4860734;29;20053;-54
2022/11/01 11:55:31;;;;;;;13.88;5.00;;;18.70;11.60;;;;;;4860926;29;20045;-52
2022/11/01 11:57:57;;;;;;;15.60;2.92;;;18.70;11.20;;;;;;4860540;29;20059;-49
2022/11/01 12:00:28;;;;;;;16.00;3.22;;;18.70;12.60;;;;;;4860155;29;20046;-50
2022/11/01 12:02:55;;;;;;;19.63;3.88;;;18.70;10.80;;;;;;4860401;29;20389;-48
2022/11/01 12:05:22;;;;;;;12.70;3.15;;;18.80;11.50;;;;;;4866577;29;20068;-49
2022/11/01 12:07:55;;;;;;;12.85;3.85;;;18.80;12.20;;;;;;4879153;29;20045;-49
2022/11/01 12:10:32;;;;;;;13.05;3.15;;;18.70;13.40;;;;;;4879046;29;20041;-48
2022/11/01 12:13:40;;;;;;;11.85;3.38;;;18.80;12.90;;;;;;4855743;29;20045;-53
2022/11/01 12:16:18;;;;;;;15.55;4.43;;;18.80;11.90;;;;;;4841807;29;20053;-48
2022/11/01 12:18:59;;;;;;;13.50;3.85;;;18.80;12.70;;;;;;4855298;29;20068;-51
2022/11/01 12:21:42;;;;;;;20.75;3.90;;;18.80;13.70;;;;;;4851819;29;20465;-52
2022/11/01 12:24:23;;;;;;;17.40;3.67;;;18.80;13.70;;;;;;4858977;29;20497;-48
2022/11/01 12:26:53;;;;;;;13.30;2.78;;;18.80;13.70;;;;;;4851693;29;20053;-49
2022/11/01 12:29:53;;;;;;;15.00;4.20;;;18.80;14.70;;;;;;4850049;29;20053;-50
2022/11/01 12:32:27;;;;;;;12.15;2.42;;;18.80;14.60;;;;;;4842003;29;20058;-48
2022/11/01 12:34:57;;;;;;;12.18;3.28;;;18.80;14.80;;;;;;4842390;29;20400;-48
2022/11/01 12:37:41;;;;;;;10.43;3.40;;;18.80;14.20;;;;;;4842069;29;20061;-50
2022/11/01 12:40:18;;;;;;;10.27;2.80;;;18.80;14.70;;;;;;4866902;29;20136;-52
2022/11/01 12:42:53;;;;;;;15.90;4.57;;;18.80;14.80;;;;;;4878960;29;20394;-52
2022/11/01 12:45:41;;;;;;;15.15;3.45;;;18.80;14.00;;;;;;4855888;29;20049;-51
2022/11/01 12:48:23;;;;;;;14.52;3.50;;;18.80;14.10;;;;;;4861380;29;20077;-51
2022/11/01 12:51:27;;;;;;;19.20;4.18;;;18.80;13.40;;;;;;4861931;29;20041;-55
2022/11/01 12:54:05;;;;;;;8.68;2.70;;;18.80;14.20;;;;;;4845045;29;20061;-49
2022/11/01 12:56:32;;;;;;;14.57;2.67;;;18.80;13.40;;;;;;4844658;29;20054;-49
2022/11/01 12:58:59;;;;;;;15.93;2.97;;;18.80;11.60;;;;;;4844389;29;20534;-47
2022/11/01 13:01:47;;;;;;;11.27;2.88;;;18.80;12.40;;;;;;4844734;29;20077;-49
2022/11/01 13:04:23;;;;;;;10.30;2.75;;;18.80;10.50;;;;;;4844880;29;20053;-52
2022/11/01 13:07:17;;;;;;;18.67;2.73;;;18.80;11.10;;;;;;4844915;29;20116;-50
2022/11/01 13:09:59;;;;;;;18.63;4.30;;;18.80;11.10;;;;;;4844389;29;20518;-49
2022/11/01 13:12:26;;;;;;;21.08;3.05;;;18.80;10.00;;;;;;4857408;29;20060;-47